Finedon, United Kingdom
Current Conditions -  °F | °C
As of 4:50 AM on Tuesday 27 Jan 2015 (Local Time) from EGXT Reporting Station
Overcast Overcast  
Wind Chill: 32°   Ceiling: 11000
Heat Index: 39°   Visibility: 6mi
Dew Point: 37°   Wind: 12mph
Humidity: 93%   Direction: 280°W
Pressure: 30.3"   Gusts: NA
Location:  52.34°N, 0.65°W
Report Text: EGXT 270450Z AUTO 28010KT 9999 OVC110/// 04/03 Q1026
Loading
Personal Weather Stations






























Interactive Weather Map New forecast layout! Learn more

10-Day Weather Forecast

Advertisements
Track Severe Weather on mobile